Time;durP1;ratioP1;P1;durP2;ratioP2;P2;SDS_P1;SDS_P2;PMS_P1;PMS_P2;Temp;Humidity;BMP_temperature;BMP_pressure;BME280_temperature;BME280_humidity;BME280_pressure;Samples;Min_cycle;Max_cycle;Signal;HPM_P1;HPM_P2
2021/06/18 00:00:27;;;;;;;;;10.00;10.00;;;;;22.26;73.72;100887.16;4976150;28;45485;-77
2021/06/18 00:02:52;;;;;;;;;9.75;9.00;;;;;22.29;74.33;100891.38;4973915;28;45489;-77
2021/06/18 00:05:19;;;;;;;;;10.00;8.00;;;;;22.28;74.51;100892.34;4976202;28;45529;-77
2021/06/18 00:07:46;;;;;;;;;9.50;8.50;;;;;22.24;74.35;100886.44;4975138;28;45436;-77
2021/06/18 00:10:13;;;;;;;;;10.50;9.00;;;;;22.29;74.45;100883.34;4975127;28;45497;-77
2021/06/18 00:12:39;;;;;;;;;9.75;7.75;;;;;22.31;74.27;100870.69;4976021;28;46252;-77
2021/06/18 00:15:06;;;;;;;;;8.75;8.75;;;;;22.28;74.58;100885.16;4975876;28;45412;-77
2021/06/18 00:17:32;;;;;;;;;10.75;10.00;;;;;22.25;74.42;100887.31;4975523;28;45448;-77
2021/06/18 00:19:57;;;;;;;;;10.50;9.00;;;;;22.19;74.49;100875.31;4976643;28;45686;-77
2021/06/18 00:22:22;;;;;;;;;16.00;9.25;;;;;22.23;74.68;100870.50;4974294;28;45956;-77
2021/06/18 00:24:48;;;;;;;;;9.75;9.75;;;;;22.21;75.02;100876.00;4976263;28;45463;-78
2021/06/18 00:27:13;;;;;;;;;12.25;10.50;;;;;22.18;75.20;100878.09;4990755;28;45372;-78
2021/06/18 00:29:39;;;;;;;;;11.00;8.75;;;;;22.16;75.39;100869.38;4975368;28;45427;-76
2021/06/18 00:32:04;;;;;;;;;11.25;10.00;;;;;22.20;74.65;100876.16;4974774;28;46668;-77
2021/06/18 00:34:30;;;;;;;;;11.00;9.00;;;;;22.20;74.51;100886.88;4974078;28;46201;-78
2021/06/18 00:36:55;;;;;;;;;10.50;10.50;;;;;22.21;75.08;100880.53;4974821;28;47162;-77
2021/06/18 00:39:21;;;;;;;;;8.00;7.25;;;;;22.21;74.49;100880.53;4974865;28;45528;-78
2021/06/18 00:41:47;;;;;;;;;10.00;8.00;;;;;22.24;74.62;100882.91;4974677;28;45443;-78
2021/06/18 00:44:12;;;;;;;;;8.25;8.25;;;;;22.23;75.20;100868.69;4976193;28;45497;-77
2021/06/18 00:46:37;;;;;;;;;11.25;9.00;;;;;22.21;74.86;100854.59;4974315;28;47019;-76
2021/06/18 00:49:03;;;;;;;;;9.25;8.50;;;;;22.23;74.85;100865.16;4975141;28;45460;-78
2021/06/18 00:51:29;;;;;;;;;7.00;6.25;;;;;22.21;75.31;100864.47;4974870;28;45672;-77
2021/06/18 00:53:55;;;;;;;;;7.25;7.00;;;;;22.20;74.80;100881.50;4974506;28;45485;-78
2021/06/18 00:56:21;;;;;;;;;6.00;5.00;;;;;22.15;74.76;100871.22;4975242;28;45621;-78
2021/06/18 00:58:47;;;;;;;;;9.00;6.25;;;;;22.16;74.87;100872.06;4975207;28;45304;-77
2021/06/18 01:01:12;;;;;;;;;7.00;5.25;;;;;22.14;75.40;100862.34;4974476;28;45372;-78
2021/06/18 01:03:38;;;;;;;;;6.50;5.00;;;;;22.18;74.36;100864.72;4972260;28;45549;-78
2021/06/18 01:06:03;;;;;;;;;5.25;4.75;;;;;22.16;75.01;100869.38;4974877;28;45398;-78
2021/06/18 01:08:39;;;;;;;;;5.50;5.50;;;;;22.17;74.84;100858.53;4974411;28;45304;-78
2021/06/18 01:11:17;;;;;;;;;11.25;8.00;;;;;22.14;75.11;100864.16;4976051;28;45582;-77
2021/06/18 01:13:57;;;;;;;;;5.00;5.00;;;;;22.13;75.51;100863.31;4974534;28;45341;-79
2021/06/18 01:16:36;;;;;;;;;6.50;5.75;;;;;22.10;75.51;100855.56;4974727;28;45506;-79
2021/06/18 01:19:14;;;;;;;;;4.75;4.00;;;;;22.14;75.13;100861.50;4974747;28;45397;-79
2021/06/18 01:21:42;;;;;;;;;3.50;3.50;;;;;22.16;74.69;100864.88;4972661;28;46529;-77
2021/06/18 01:24:13;;;;;;;;;4.75;4.00;;;;;22.15;75.16;100849.78;4973894;28;45722;-79
2021/06/18 01:27:01;;;;;;;;;7.00;5.75;;;;;22.12;75.15;100855.41;4974548;28;45917;-77
2021/06/18 01:29:34;;;;;;;;;3.25;3.25;;;;;22.09;75.14;100848.47;4972737;28;45403;-79
2021/06/18 01:32:04;;;;;;;;;3.00;3.00;;;;;22.06;75.43;100831.84;4974644;28;45410;-78
2021/06/18 01:34:32;;;;;;;;;4.50;2.75;;;;;22.06;75.49;100827.34;4973449;28;46023;-78
2021/06/18 01:37:13;;;;;;;;;4.50;4.50;;;;;22.02;75.60;100815.22;4974282;28;45466;-79
2021/06/18 01:39:41;;;;;;;;;5.00;4.00;;;;;22.02;75.02;100814.38;4974862;28;45823;-80
2021/06/18 01:42:10;;;;;;;;;4.00;4.00;;;;;22.00;75.63;100819.03;4975234;28;45430;-79
2021/06/18 01:44:36;;;;;;;;;7.00;4.25;;;;;22.00;75.91;100819.88;4973853;28;45299;-78
2021/06/18 01:47:06;;;;;;;;;5.00;4.00;;;;;22.00;75.96;100817.19;4976264;28;45555;-79
2021/06/18 01:49:35;;;;;;;;;2.75;2.75;;;;;21.94;75.79;100806.19;4974564;28;45379;-79
2021/06/18 01:52:03;;;;;;;;;4.75;3.50;;;;;22.00;75.09;100809.16;4972743;28;45712;-77
2021/06/18 01:54:30;;;;;;;;;4.00;4.00;;;;;21.97;75.35;100801.41;4973178;28;45459;-78
2021/06/18 01:56:59;;;;;;;;;4.00;3.00;;;;;21.97;74.54;100803.22;4973997;28;45402;-78
2021/06/18 01:59:28;;;;;;;;;2.00;2.00;;;;;21.92;74.91;100795.59;4974192;28;45401;-78
2021/06/18 02:01:54;;;;;;;;;4.00;3.00;;;;;21.89;76.02;100791.41;4974928;28;45542;-79
2021/06/18 02:04:20;;;;;;;;;3.25;2.75;;;;;21.91;75.70;100793.06;4973308;28;45465;-78
2021/06/18 02:06:48;;;;;;;;;4.00;3.00;;;;;21.91;75.32;100793.06;4973498;28;45685;-79
2021/06/18 02:09:16;;;;;;;;;2.75;2.75;;;;;21.89;75.94;100787.88;4973787;28;45862;-79
2021/06/18 02:11:42;;;;;;;;;2.75;2.00;;;;;21.88;75.89;100780.84;4973998;28;47317;-79
2021/06/18 02:14:15;;;;;;;;;3.00;1.75;;;;;21.88;75.37;100775.50;4974184;28;45565;-79
2021/06/18 02:16:49;;;;;;;;;3.50;3.50;;;;;21.88;75.52;100768.31;4972478;28;45290;-78
2021/06/18 02:19:16;;;;;;;;;4.00;4.00;;;;;21.91;75.89;100767.16;4973767;28;45534;-78
2021/06/18 02:21:44;;;;;;;;;2.00;2.00;;;;;21.89;76.05;100758.44;4972855;28;46301;-79
2021/06/18 02:24:11;;;;;;;;;4.00;3.00;;;;;21.88;75.74;100762.94;4973243;28;45424;-78
2021/06/18 02:26:37;;;;;;;;;1.75;1.75;;;;;21.91;75.76;100766.31;4973230;28;45385;-78
2021/06/18 02:29:06;;;;;;;;;2.50;2.00;;;;;21.91;76.00;100760.97;4975227;28;45549;-78
2021/06/18 02:31:34;;;;;;;;;2.75;2.00;;;;;21.90;76.45;100754.78;4973195;28;46379;-77
2021/06/18 02:34:00;;;;;;;;;1.00;1.00;;;;;21.90;76.44;100760.13;4972682;28;45780;-77
2021/06/18 02:36:25;;;;;;;;;3.00;2.50;;;;;21.89;75.81;100753.94;4973415;28;45402;-78
2021/06/18 02:38:51;;;;;;;;;3.75;3.00;;;;;21.92;76.15;100762.66;4973575;28;45455;-77
2021/06/18 02:41:16;;;;;;;;;2.75;2.75;;;;;21.94;76.08;100766.06;4974257;28;45533;-78
2021/06/18 02:43:41;;;;;;;;;2.50;2.50;;;;;21.91;76.72;100764.50;4972799;28;45351;-77
2021/06/18 02:46:07;;;;;;;;;2.00;2.00;;;;;21.87;75.98;100771.97;4972742;28;45424;-78
2021/06/18 02:48:45;;;;;;;;;4.50;3.25;;;;;21.81;76.03;100758.28;4963973;28;45572;-77
2021/06/18 02:51:18;;;;;;;;;3.25;3.25;;;;;21.83;76.70;100761.69;4973052;28;46257;-77
2021/06/18 02:53:57;;;;;;;;;3.25;3.25;;;;;21.89;76.50;100764.63;4961490;28;45809;-78
2021/06/18 02:56:38;;;;;;;;;4.00;4.00;;;;;21.91;76.98;100758.28;4971692;28;45470;-77
2021/06/18 02:59:25;;;;;;;;;3.00;3.00;;;;;21.92;76.41;100762.66;4973627;28;45448;-78
2021/06/18 03:01:55;;;;;;;;;5.00;4.00;;;;;21.95;77.07;100757.88;4974370;28;45443;-78
2021/06/18 03:04:25;;;;;;;;;2.00;2.00;;;;;21.99;76.39;100759.31;4972448;28;45455;-78
2021/06/18 03:06:53;;;;;;;;;3.00;3.00;;;;;21.99;76.29;100753.94;4972116;28;45592;-77
2021/06/18 03:09:26;;;;;;;;;3.00;3.00;;;;;22.01;76.57;100759.16;4972757;28;45297;-78
2021/06/18 03:11:53;;;;;;;;;3.50;3.00;;;;;21.99;76.34;100753.94;4988577;28;47829;-79
2021/06/18 03:14:22;;;;;;;;;2.75;2.00;;;;;22.01;75.89;100748.44;4974327;28;45380;-79
2021/06/18 03:16:49;;;;;;;;;4.75;4.75;;;;;21.99;76.32;100742.41;4973548;28;45313;-78
2021/06/18 03:19:19;;;;;;;;;5.00;3.75;;;;;21.99;76.42;100742.41;4972587;28;45495;-77
2021/06/18 03:21:47;;;;;;;;;3.25;3.00;;;;;22.01;76.67;100745.78;4971897;28;46613;-78
2021/06/18 03:24:14;;;;;;;;;5.75;3.50;;;;;22.03;75.96;100758.06;4972772;28;45392;-79
2021/06/18 03:26:40;;;;;;;;;4.25;4.25;;;;;22.04;76.32;100757.06;4974080;28;45470;-78
2021/06/18 03:29:07;;;;;;;;;4.75;4.00;;;;;22.06;76.65;100759.59;4978166;28;45298;-78
2021/06/18 03:31:35;;;;;;;;;6.25;5.00;;;;;22.08;76.74;100755.81;4974228;28;46234;-78
2021/06/18 03:34:02;;;;;;;;;4.00;4.00;;;;;22.09;76.25;100754.81;4975232;28;45805;-78
2021/06/18 03:36:28;;;;;;;;;3.50;3.00;;;;;22.10;76.84;100761.00;4974666;28;45442;-79
2021/06/18 03:38:54;;;;;;;;;4.75;4.00;;;;;22.12;76.26;100780.47;4976140;28;45490;-78
2021/06/18 03:41:21;;;;;;;;;3.50;3.50;;;;;22.12;76.26;100821.47;4977261;28;46304;-77
2021/06/18 03:43:47;;;;;;;;;2.50;2.50;;;;;22.10;76.68;100850.22;4976791;28;45732;-78
2021/06/18 03:46:15;;;;;;;;;4.00;3.50;;;;;22.06;76.81;100842.56;4975872;28;45573;-79
2021/06/18 03:48:44;;;;;;;;;4.00;4.00;;;;;22.06;77.11;100807.75;4975832;28;45585;-78
2021/06/18 03:51:10;;;;;;;;;3.50;3.00;;;;;22.08;76.76;100803.09;4976440;28;45547;-78
2021/06/18 03:53:36;;;;;;;;;7.25;5.25;;;;;22.09;77.65;100813.69;4975778;28;45736;-78
2021/06/18 03:56:03;;;;;;;;;6.00;5.00;;;;;22.12;77.02;100810.75;4977736;28;45446;-78
2021/06/18 03:58:30;;;;;;;;;6.50;3.25;;;;;22.15;77.21;100815.00;4975379;28;45465;-78
2021/06/18 04:00:57;;;;;;;;;5.50;4.00;;;;;22.17;77.21;100809.50;4975450;28;46559;-78
2021/06/18 04:03:23;;;;;;;;;5.25;5.00;;;;;22.19;76.58;100799.53;4973528;28;45585;-78
2021/06/18 04:05:50;;;;;;;;;5.75;4.00;;;;;22.17;76.81;100796.94;4976496;28;45594;-79
2021/06/18 04:08:19;;;;;;;;;4.50;4.00;;;;;22.12;76.89;100792.00;4976955;28;45599;-78
2021/06/18 04:10:45;;;;;;;;;8.50;7.00;;;;;22.10;76.94;100783.28;4977135;28;46462;-77
2021/06/18 04:13:10;;;;;;;;;5.00;4.00;;;;;22.12;77.19;100775.97;4975189;28;45489;-78
2021/06/18 04:15:36;;;;;;;;;7.50;6.25;;;;;22.12;77.14;100772.44;4975736;28;45462;-78
2021/06/18 04:18:03;;;;;;;;;6.00;6.00;;;;;22.15;77.18;100780.19;4975059;28;45576;-77
2021/06/18 04:20:29;;;;;;;;;4.25;4.25;;;;;22.16;77.51;100787.25;4975518;28;45457;-78
2021/06/18 04:22:54;;;;;;;;;8.00;5.75;;;;;22.20;76.80;100793.16;4973812;28;45586;-78
2021/06/18 04:25:22;;;;;;;;;5.50;5.50;;;;;22.21;77.46;100784.16;4975102;28;45285;-77
2021/06/18 04:27:47;;;;;;;;;7.00;6.75;;;;;22.24;77.14;100792.75;4974839;28;45534;-78
2021/06/18 04:30:15;;;;;;;;;3.00;3.00;;;;;22.21;77.17;100782.31;4975014;28;45648;-77
2021/06/18 04:32:41;;;;;;;;;6.75;6.00;;;;;22.19;76.77;100778.94;4973598;28;45486;-78
2021/06/18 04:35:08;;;;;;;;;7.50;7.00;;;;;22.18;77.33;100779.06;4976126;28;45482;-78
2021/06/18 04:37:34;;;;;;;;;7.25;6.00;;;;;22.19;77.36;100764.72;4975656;28;45368;-78
2021/06/18 04:40:00;;;;;;;;;8.00;8.00;;;;;22.16;77.25;100759.63;4974740;28;45569;-77
2021/06/18 04:42:26;;;;;;;;;7.00;5.75;;;;;22.17;76.81;100759.47;4974774;28;45431;-78
2021/06/18 04:44:51;;;;;;;;;7.75;5.75;;;;;22.20;77.04;100766.41;4975034;28;45590;-78
2021/06/18 04:47:18;;;;;;;;;7.25;5.75;;;;;22.17;76.76;100748.78;4976005;28;45325;-78
2021/06/18 04:49:44;;;;;;;;;10.00;7.25;;;;;22.27;76.99;100757.66;4975515;28;46113;-78
2021/06/18 04:52:10;;;;;;;;;8.50;7.25;;;;;22.34;77.12;100758.81;4974569;28;45462;-78
2021/06/18 04:54:35;;;;;;;;;5.75;5.75;;;;;22.39;77.18;100758.34;4974591;28;45475;-77
2021/06/18 04:57:00;;;;;;;;;11.75;10.00;;;;;22.44;76.63;100750.75;4975609;28;45446;-78
2021/06/18 04:59:26;;;;;;;;;7.25;6.50;;;;;22.49;76.40;100753.00;4975197;28;45836;-78
2021/06/18 05:01:51;;;;;;;;;7.50;5.50;;;;;22.53;76.31;100757.94;4975659;28;45376;-78
2021/06/18 05:04:16;;;;;;;;;7.50;7.00;;;;;22.61;76.63;100766.09;4974600;28;45548;-78
2021/06/18 05:06:42;;;;;;;;;7.75;6.50;;;;;22.65;76.23;100756.78;4973530;28;45574;-78
2021/06/18 05:09:07;;;;;;;;;9.75;7.00;;;;;22.70;76.12;100755.50;4974091;28;46474;-77
2021/06/18 05:11:33;;;;;;;;;10.25;7.00;;;;;22.75;76.28;100756.75;4974164;28;45496;-78
2021/06/18 05:13:58;;;;;;;;;10.75;7.75;;;;;22.82;76.32;100757.91;4975321;28;45372;-79
2021/06/18 05:16:25;;;;;;;;;8.00;7.25;;;;;22.88;75.57;100751.97;4974474;28;45510;-78
2021/06/18 05:18:51;;;;;;;;;9.00;8.00;;;;;22.96;75.81;100745.03;4974206;28;45553;-78
2021/06/18 05:21:16;;;;;;;;;6.75;6.00;;;;;23.03;75.34;100754.19;4973404;28;51458;-78
2021/06/18 05:23:42;;;;;;;;;6.75;6.75;;;;;23.07;74.77;100753.75;4974433;28;45387;-78
2021/06/18 05:26:07;;;;;;;;;6.00;6.00;;;;;23.12;74.55;100759.50;4974943;28;45480;-78
2021/06/18 05:28:32;;;;;;;;;7.00;7.00;;;;;23.23;74.98;100763.00;4974315;28;45505;-79
2021/06/18 05:30:58;;;;;;;;;7.00;6.25;;;;;23.31;74.85;100755.91;4974316;28;45549;-79
2021/06/18 05:33:23;;;;;;;;;10.25;8.75;;;;;23.37;74.19;100760.69;4974053;28;45459;-79
2021/06/18 05:35:48;;;;;;;;;7.25;6.25;;;;;23.47;73.67;100774.06;4973529;28;45426;-79
2021/06/18 05:38:14;;;;;;;;;9.50;7.00;;;;;23.50;73.77;100752.31;4974646;28;57816;-78
2021/06/18 05:40:41;;;;;;;;;6.00;6.00;;;;;23.69;74.01;100762.94;4973797;28;45687;-78
2021/06/18 05:43:10;;;;;;;;;8.25;8.25;;;;;24.06;73.31;100762.00;4973702;28;45502;-78
2021/06/18 05:45:36;;;;;;;;;9.50;8.00;;;;;24.72;72.20;100752.69;4973091;28;45575;-78
2021/06/18 05:48:05;;;;;;;;;8.75;7.00;;;;;25.67;70.51;100758.94;4975421;28;46334;-77
2021/06/18 05:50:31;;;;;;;;;11.50;6.75;;;;;26.47;68.43;100756.63;4972832;28;45805;-77
2021/06/18 05:52:56;;;;;;;;;8.00;8.00;;;;;27.03;66.51;100746.75;4975479;28;45420;-78
2021/06/18 05:55:22;;;;;;;;;7.25;7.25;;;;;27.23;65.45;100744.53;4972680;28;45594;-77
2021/06/18 05:57:54;;;;;;;;;9.00;8.00;;;;;27.35;65.04;100753.94;4973718;28;46177;-78
2021/06/18 06:00:21;;;;;;;;;8.00;7.00;;;;;27.45;64.36;100748.31;4970042;28;45594;-77
2021/06/18 06:02:46;;;;;;;;;7.25;7.00;;;;;27.32;63.78;100757.00;4974745;28;45518;-76
2021/06/18 06:05:12;;;;;;;;;8.25;8.00;;;;;27.12;64.56;100759.25;4975181;28;45451;-76
2021/06/18 06:07:38;;;;;;;;;7.75;7.00;;;;;27.00;64.58;100766.00;4973221;28;45529;-76
2021/06/18 06:10:04;;;;;;;;;9.50;8.25;;;;;26.88;64.36;100767.34;4973683;28;45486;-80
2021/06/18 06:12:30;;;;;;;;;8.00;7.25;;;;;26.75;64.64;100773.28;4973441;28;45568;-77
2021/06/18 06:14:55;;;;;;;;;8.25;7.00;;;;;26.57;64.81;100776.13;4974019;28;45583;-78
2021/06/18 06:17:21;;;;;;;;;9.25;8.00;;;;;26.44;65.48;100770.44;4975358;28;46497;-80
2021/06/18 06:19:47;;;;;;;;;8.50;7.50;;;;;26.32;64.67;100772.59;4973569;28;45416;-78
2021/06/18 06:22:12;;;;;;;;;10.75;8.75;;;;;26.13;65.18;100773.72;4972944;28;45502;-81
2021/06/18 06:24:40;;;;;;;;;8.25;7.50;;;;;26.01;65.78;100769.69;4973782;28;45384;-79
2021/06/18 06:27:06;;;;;;;;;12.25;11.25;;;;;25.91;66.03;100769.81;4973514;28;45642;-78
2021/06/18 06:29:31;;;;;;;;;11.25;10.25;;;;;25.86;66.77;100774.00;4973276;28;45520;-78
2021/06/18 06:31:56;;;;;;;;;9.25;8.00;;;;;25.83;66.11;100766.25;4975239;28;45445;-77
2021/06/18 06:34:22;;;;;;;;;11.00;11.00;;;;;25.79;65.83;100765.75;4972728;28;45391;-78
2021/06/18 06:36:47;;;;;;;;;9.00;9.00;;;;;25.68;66.14;100764.16;4973931;28;45544;-76
2021/06/18 06:39:12;;;;;;;;;9.25;8.00;;;;;25.63;66.63;100766.53;4973639;28;45394;-78
2021/06/18 06:41:38;;;;;;;;;7.25;7.25;;;;;25.59;66.31;100765.16;4972915;28;45410;-78
2021/06/18 06:44:04;;;;;;;;;9.25;8.25;;;;;25.52;66.68;100761.41;4973949;28;46191;-79
2021/06/18 06:46:29;;;;;;;;;10.75;9.00;;;;;25.42;66.80;100760.69;4973678;28;46168;-78
2021/06/18 06:48:55;;;;;;;;;9.25;9.25;;;;;25.38;67.06;100744.03;4971942;28;45477;-80
2021/06/18 06:51:20;;;;;;;;;10.00;9.00;;;;;25.47;67.52;100766.44;4972856;28;45542;-80
2021/06/18 06:53:45;;;;;;;;;13.50;11.75;;;;;25.55;67.03;100766.47;4973287;28;45331;-80
2021/06/18 06:56:11;;;;;;;;;10.25;10.25;;;;;25.56;66.66;100762.78;4974246;28;45428;-79
2021/06/18 06:58:37;;;;;;;;;10.00;9.25;;;;;25.62;66.80;100780.97;4973177;28;45538;-77
2021/06/18 07:01:02;;;;;;;;;10.50;10.25;;;;;25.66;66.41;100768.88;4970928;28;45576;-79
2021/06/18 07:03:28;;;;;;;;;12.00;10.25;;;;;25.69;66.55;100763.16;4976389;28;45498;-79
2021/06/18 07:05:53;;;;;;;;;12.00;10.75;;;;;25.77;65.85;100781.22;4976561;28;46298;-80
2021/06/18 07:08:21;;;;;;;;;11.75;10.50;;;;;25.83;66.04;100787.78;4973425;28;45458;-77
2021/06/18 07:10:47;;;;;;;;;9.50;8.50;;;;;25.91;65.82;100771.66;4973003;28;45600;-77
2021/06/18 07:13:14;;;;;;;;;13.00;9.00;;;;;26.05;65.12;100776.44;4967894;28;46523;-78
2021/06/18 07:15:39;;;;;;;;;13.00;10.00;;;;;26.11;65.16;100783.00;4973360;28;46384;-77
2021/06/18 07:18:05;;;;;;;;;11.50;10.75;;;;;26.18;64.11;100787.53;4977170;28;45909;-78
2021/06/18 07:20:31;;;;;;;;;11.50;9.50;;;;;26.28;64.27;100798.16;4969061;28;46124;-80
2021/06/18 07:22:56;;;;;;;;;8.25;7.75;;;;;26.46;64.73;100790.78;4960007;28;47015;-79
2021/06/18 07:25:22;;;;;;;;;11.25;9.25;;;;;26.78;64.62;100797.19;4961835;28;45588;-78
2021/06/18 07:27:47;;;;;;;;;10.25;9.50;;;;;27.02;63.44;100799.03;4968823;28;45812;-78
2021/06/18 07:30:13;;;;;;;;;10.50;9.75;;;;;27.15;62.81;100791.28;4975684;28;45572;-79
2021/06/18 07:32:39;;;;;;;;;11.50;7.75;;;;;27.30;62.11;100794.09;4976572;28;45492;-79
2021/06/18 07:35:05;;;;;;;;;10.75;9.50;;;;;27.57;61.38;100790.13;4977749;28;46463;-79
2021/06/18 07:37:30;;;;;;;;;8.00;8.00;;;;;27.65;61.13;100802.75;4975451;28;45797;-79
2021/06/18 07:39:55;;;;;;;;;8.25;7.75;;;;;27.54;60.41;100795.88;4975128;28;45680;-79
2021/06/18 07:42:21;;;;;;;;;10.00;8.75;;;;;27.58;60.36;100797.22;4975062;28;45589;-80
2021/06/18 07:44:46;;;;;;;;;9.00;9.00;;;;;27.81;60.17;100808.94;4976369;28;46289;-78
2021/06/18 07:47:12;;;;;;;;;8.50;8.00;;;;;27.93;59.25;100806.69;4977852;28;45508;-79
2021/06/18 07:49:37;;;;;;;;;7.75;7.50;;;;;27.83;59.50;100806.09;4976673;28;45509;-79
2021/06/18 07:52:03;;;;;;;;;9.50;8.25;;;;;27.87;58.79;100795.75;4976135;28;45604;-80
2021/06/18 07:54:28;;;;;;;;;9.00;9.00;;;;;28.48;60.09;100792.16;4980382;28;45635;-80
2021/06/18 07:56:55;;;;;;;;;7.00;7.00;;;;;29.82;57.85;100795.88;4975794;28;45717;-82
2021/06/18 07:59:20;;;;;;;;;9.25;8.00;;;;;31.44;54.92;100805.09;4975817;28;45356;-81
2021/06/18 08:01:46;;;;;;;;;7.25;7.25;;;;;32.33;52.75;100807.72;4975521;28;45580;-81
2021/06/18 08:04:12;;;;;;;;;12.00;8.25;;;;;32.73;51.41;100794.16;4973342;28;46372;-80
2021/06/18 08:06:37;;;;;;;;;8.00;7.25;;;;;33.54;49.95;100791.13;4973742;28;45491;-78
2021/06/18 08:09:04;;;;;;;;;10.75;8.75;;;;;34.78;49.62;100785.16;4975304;28;45363;-77
2021/06/18 08:11:30;;;;;;;;;8.25;8.25;;;;;36.52;45.32;100792.94;4980822;28;45439;-78
2021/06/18 08:13:56;;;;;;;;;8.25;6.75;;;;;37.72;43.07;100791.56;5005924;28;47146;-78
2021/06/18 08:16:21;;;;;;;;;6.00;6.00;;;;;36.77;42.60;100800.94;4974726;28;45481;-80
2021/06/18 08:18:46;;;;;;;;;9.25;6.25;;;;;35.67;42.30;100795.81;4974772;28;45382;-80
2021/06/18 08:21:12;;;;;;;;;8.00;6.50;;;;;34.63;43.66;100794.75;4976573;28;45387;-80
2021/06/18 08:23:38;;;;;;;;;10.25;6.25;;;;;33.98;44.10;100793.03;4974618;28;46417;-81
2021/06/18 08:26:03;;;;;;;;;8.00;7.00;;;;;33.50;45.00;100801.63;4975144;28;45417;-80
2021/06/18 08:28:29;;;;;;;;;8.00;7.75;;;;;33.80;45.60;100792.06;4971338;28;45700;-81
2021/06/18 08:30:55;;;;;;;;;9.25;7.50;;;;;35.52;44.27;100783.38;4972546;28;45394;-82
2021/06/18 08:33:21;;;;;;;;;7.25;6.75;;;;;37.51;41.70;100776.59;4970988;28;46228;-81
2021/06/18 08:35:47;;;;;;;;;7.75;6.25;;;;;37.77;39.15;100775.22;4970644;28;45641;-80
2021/06/18 08:38:13;;;;;;;;;6.75;6.00;;;;;37.84;39.33;100782.22;4973847;28;45435;-80
2021/06/18 08:40:39;;;;;;;;;6.75;6.25;;;;;38.37;38.76;100775.56;4973667;28;45692;-79
2021/06/18 08:43:05;;;;;;;;;6.50;5.75;;;;;40.46;36.97;100784.84;4971407;28;45600;-81
2021/06/18 08:45:31;;;;;;;;;7.50;6.00;;;;;41.96;34.09;100776.03;4969730;28;45884;-81
2021/06/18 08:47:57;;;;;;;;;15.50;14.75;;;;;43.41;32.53;100777.31;4970042;28;45578;-82
2021/06/18 08:50:23;;;;;;;;;7.00;5.00;;;;;45.39;30.96;100787.06;4973020;28;45653;-80
2021/06/18 08:52:56;;;;;;;;;6.25;6.25;;;;;46.97;29.03;100790.97;4987848;28;46669;-81
2021/06/18 08:55:25;;;;;;;;;6.75;5.25;;;;;48.27;26.82;100783.91;4968873;28;45696;-80
2021/06/18 08:57:52;;;;;;;;;5.75;5.75;;;;;49.64;25.47;100787.63;4972115;28;45888;-80
2021/06/18 09:00:19;;;;;;;;;8.75;6.00;;;;;50.71;23.91;100804.84;4968905;28;45561;-80
2021/06/18 09:02:46;;;;;;;;;5.50;3.75;;;;;51.34;22.48;100795.50;4967334;28;46570;-80
2021/06/18 09:05:13;;;;;;;;;6.50;5.25;;;;;52.11;22.43;100804.50;4970754;28;45893;-79
2021/06/18 09:08:01;;;;;;;;;3.00;3.00;;;;;53.07;20.48;100817.47;4969788;28;46665;-80
2021/06/18 09:10:28;;;;;;;;;4.25;3.25;;;;;53.41;19.76;100816.16;4972141;28;45748;-79
2021/06/18 09:13:14;;;;;;;;;4.00;4.00;;;;;53.99;19.32;100810.31;4969919;28;45690;-79
2021/06/18 09:15:45;;;;;;;;;4.50;4.50;;;;;54.37;18.41;100807.81;4971419;28;45418;-80
2021/06/18 09:18:34;;;;;;;;;4.50;4.50;;;;;54.95;18.29;100821.41;4972594;28;45371;-80
2021/06/18 09:21:02;;;;;;;;;5.75;4.25;;;;;55.11;17.34;100818.59;4972977;28;45901;-80
2021/06/18 09:23:41;;;;;;;;;6.00;6.00;;;;;54.58;17.61;100813.22;4974829;28;46427;-80
2021/06/18 09:26:33;;;;;;;;;3.25;3.25;;;;;54.12;17.88;100820.34;4972667;28;45481;-82
2021/06/18 09:29:09;;;;;;;;;5.00;5.00;;;;;53.38;19.27;100811.28;4971892;28;45344;-80
2021/06/18 09:31:46;;;;;;;;;3.00;3.00;;;;;52.26;19.06;100819.03;4973457;28;45402;-81
2021/06/18 09:34:13;;;;;;;;;5.75;4.50;;;;;51.06;19.20;100802.72;4973916;28;45943;-80
2021/06/18 09:36:39;;;;;;;;;5.25;4.00;;;;;50.53;20.54;100806.84;4976038;28;45537;-81
2021/06/18 09:39:16;;;;;;;;;5.00;4.00;;;;;50.07;20.69;100813.94;4974293;28;45510;-81
2021/06/18 09:41:46;;;;;;;;;4.75;4.25;;;;;49.33;20.75;100814.81;4973480;28;45392;-80
2021/06/18 09:44:18;;;;;;;;;5.50;5.25;;;;;48.51;21.18;100814.28;4967885;28;46277;-80
2021/06/18 09:46:50;;;;;;;;;4.00;2.75;;;;;47.38;21.46;100814.38;4964851;28;45833;-81
2021/06/18 09:49:30;;;;;;;;;3.25;3.25;;;;;46.26;21.97;100815.28;4968668;28;45518;-80
2021/06/18 09:52:04;;;;;;;;;26.25;23.25;;;;;45.48;22.67;100813.88;4971318;28;45953;-81
2021/06/18 09:54:31;;;;;;;;;4.75;3.50;;;;;44.72;22.79;100826.59;4974752;28;46700;-80
2021/06/18 09:57:07;;;;;;;;;3.00;3.00;;;;;44.42;24.22;100812.97;4972575;28;46017;-81
2021/06/18 09:59:44;;;;;;;;;6.00;4.50;;;;;43.80;24.38;100806.16;5004413;28;45556;-81
2021/06/18 10:02:10;;;;;;;;;3.50;3.50;;;;;43.01;24.88;100814.19;4972723;28;45519;-82
2021/06/18 10:04:36;;;;;;;;;4.75;4.00;;;;;41.57;26.18;100822.56;4986778;28;46925;-80
2021/06/18 10:07:02;;;;;;;;;3.50;2.00;;;;;40.80;26.26;100827.56;4965906;28;45813;-81
2021/06/18 10:09:28;;;;;;;;;3.00;3.00;;;;;39.86;27.29;100823.34;4974353;28;45522;-81
2021/06/18 10:11:54;;;;;;;;;3.25;3.25;;;;;39.11;28.08;100824.81;4972717;28;45569;-81
2021/06/18 10:14:19;;;;;;;;;5.25;3.50;;;;;38.24;28.95;100827.16;4975789;28;46574;-80
2021/06/18 10:16:45;;;;;;;;;4.00;3.00;;;;;37.72;30.09;100830.78;4973511;28;45492;-82
2021/06/18 10:19:10;;;;;;;;;2.75;2.25;;;;;37.39;30.52;100836.13;4974287;28;45387;-80
2021/06/18 10:21:55;;;;;;;;;4.50;2.50;;;;;37.05;30.61;100823.00;4972288;28;45349;-82
2021/06/18 10:24:31;;;;;;;;;2.00;2.00;;;;;36.97;30.47;100817.91;4974316;28;46134;-80
2021/06/18 10:26:57;;;;;;;;;3.00;3.00;;;;;36.67;30.57;100833.56;4974397;28;45791;-81
2021/06/18 10:29:30;;;;;;;;;3.00;2.25;;;;;36.59;30.65;100843.75;4972825;28;45357;-82
2021/06/18 10:31:56;;;;;;;;;1.00;0.50;;;;;36.38;31.40;100824.28;4972334;28;45339;-79
2021/06/18 10:34:37;;;;;;;;;3.25;3.00;;;;;35.96;31.97;100833.28;4973643;28;46672;-81
2021/06/18 10:37:21;;;;;;;;;2.00;2.00;;;;;35.33;32.39;100839.03;4987310;28;45577;-80
2021/06/18 10:40:07;;;;;;;;;4.50;2.75;;;;;34.92;33.59;100835.00;4975989;28;45374;-81
2021/06/18 10:42:32;;;;;;;;;3.75;3.75;;;;;34.70;33.91;100833.72;4973057;28;45454;-80
2021/06/18 10:44:58;;;;;;;;;3.25;3.25;;;;;34.42;34.21;100837.69;4971119;28;47962;-80
2021/06/18 10:47:23;;;;;;;;;3.75;2.75;;;;;34.04;34.22;100845.91;4974454;28;45305;-80
2021/06/18 10:49:53;;;;;;;;;3.25;2.50;;;;;33.83;34.88;100838.84;4969917;28;45533;-80
2021/06/18 10:52:22;;;;;;;;;4.25;2.75;;;;;33.72;36.12;100837.59;4970089;28;45623;-81
2021/06/18 10:54:50;;;;;;;;;2.75;2.00;;;;;33.37;36.37;100847.13;4973697;28;45846;-80
2021/06/18 10:57:16;;;;;;;;;2.75;2.75;;;;;33.04;36.43;100834.38;4973284;28;45525;-79
2021/06/18 10:59:46;;;;;;;;;2.25;2.25;;;;;32.88;36.30;100840.22;4972149;28;45776;-79
2021/06/18 11:02:20;;;;;;;;;2.75;2.25;;;;;32.66;37.77;100858.63;4967266;28;45586;-78
2021/06/18 11:04:46;;;;;;;;;4.00;3.00;;;;;32.31;37.58;100852.47;4964329;28;47115;-84
2021/06/18 11:07:20;;;;;;;;;4.25;2.50;;;;;32.17;38.47;100848.91;4970343;28;45485;-77
2021/06/18 11:09:47;;;;;;;;;3.00;3.00;;;;;32.05;38.25;100845.06;4965722;28;45547;-77
2021/06/18 11:12:34;;;;;;;;;6.00;3.50;;;;;32.06;39.23;100858.50;4977189;28;45502;-81
2021/06/18 11:15:02;;;;;;;;;4.00;2.50;;;;;32.06;39.17;100865.81;4968973;28;45844;-79
2021/06/18 11:17:47;;;;;;;;;4.25;2.75;;;;;31.87;39.15;100842.94;4971031;28;45529;-78
2021/06/18 11:20:20;;;;;;;;;4.75;3.00;;;;;32.03;38.95;100872.47;4970851;28;45443;-77
2021/06/18 11:22:54;;;;;;;;;5.50;3.00;;;;;31.85;38.49;100867.59;4969731;28;45467;-76
2021/06/18 11:25:32;;;;;;;;;4.75;4.00;;;;;31.64;39.32;100863.06;4981138;28;46949;-76
2021/06/18 11:28:19;;;;;;;;;4.25;3.00;;;;;31.67;39.43;100859.94;4963545;28;45852;-75